Time,TemperatureF,DewpointF,PressureIn,WindDirection,WindDirectionDegrees,WindSpeedMPH,WindSpeedGustMPH,Humidity,HourlyPrecipIn,Conditions,Clouds,dailyrainin,SoftwareType,DateUTC
2013-05-03 00:01:00,53.0,33.0,-100.00,North,-999,1.0,3.0,46,-99.99,,,-99.99,,2013-05-03 07:01:00,
2013-05-03 02:01:00,49.0,40.0,-100.00,North,-999,1.0,3.0,70,-99.99,,,-99.99,,2013-05-03 09:01:00,
2013-05-03 03:02:00,49.0,41.0,-100.00,North,-999,1.0,3.0,73,-99.99,,,-99.99,,2013-05-03 10:02:00,
2013-05-03 05:00:00,48.0,40.0,-100.00,North,-999,1.0,7.0,73,-99.99,,,-99.99,,2013-05-03 12:00:00,
2013-05-03 05:01:00,50.0,39.0,-100.00,North,-999,0.0,2.0,65,-99.99,,,-99.99,,2013-05-03 12:01:00,
2013-05-03 06:00:00,49.0,40.0,-100.00,North,-999,9.0,13.0,70,-99.99,,,-99.99,,2013-05-03 13:00:00,
2013-05-03 07:00:00,50.0,41.0,-100.00,North,-999,3.0,10.0,71,-99.99,,,-99.99,,2013-05-03 14:00:00,
2013-05-03 08:00:00,54.0,42.0,-100.00,North,-999,5.0,13.0,63,-99.99,,,-99.99,,2013-05-03 15:00:00,
2013-05-03 09:00:00,56.0,43.0,-100.00,North,-999,6.0,13.0,61,-99.99,,,-99.99,,2013-05-03 16:00:00,
2013-05-03 11:00:00,60.0,43.0,-100.00,North,-999,3.0,7.0,53,-99.99,,,-99.99,,2013-05-03 18:00:00,
2013-05-03 11:01:00,61.0,45.0,-100.00,North,-999,2.0,7.0,55,-99.99,,,-99.99,,2013-05-03 18:01:00,
2013-05-03 12:00:00,63.0,44.0,-100.00,North,-999,2.0,3.0,49,-99.99,,,-99.99,,2013-05-03 19:00:00,
2013-05-03 13:00:00,64.0,42.0,-100.00,North,-999,2.0,7.0,44,-99.99,,,-99.99,,2013-05-03 20:00:00,
2013-05-03 14:00:00,66.0,43.0,-100.00,North,-999,5.0,9.0,43,-99.99,,,-99.99,,2013-05-03 21:00:00,
2013-05-03 17:00:00,66.0,41.0,-100.00,North,-999,6.0,9.0,39,-99.99,,,-99.99,,2013-05-04 00:00:00,
2013-05-03 18:00:00,66.0,41.0,-100.00,North,-999,2.0,3.0,39,-99.99,,,-99.99,,2013-05-04 01:00:00,
2013-05-03 19:00:00,64.0,41.0,-100.00,North,-999,2.0,5.0,42,-99.99,,,-99.99,,2013-05-04 02:00:00,
2013-05-03 20:00:00,58.0,40.0,-100.00,North,-999,0.0,0.0,51,-99.99,,,-99.99,,2013-05-04 03:00:00,
2013-05-03 22:02:00,56.0,40.0,-100.00,North,-999,0.0,0.0,54,-99.99,,,-99.99,,2013-05-04 05:02:00,
2013-05-03 23:01:00,54.0,40.0,-100.00,North,-999,1.0,3.0,58,-99.99,,,-99.99,,2013-05-04 06:01:00,